sensor_id;sensor_type;location;lat;lon;timestamp;pressure;altitude;pressure_sealevel;temperature;humidity
51928;BME280;37953;52.806;18.270;2023-06-19T00:00:00;100517.63;;;17.70;100.00
51928;BME280;37953;52.806;18.270;2023-06-19T00:02:26;100516.06;;;17.63;100.00
51928;BME280;37953;52.806;18.270;2023-06-19T00:04:52;100517.13;;;17.56;100.00
51928;BME280;37953;52.806;18.270;2023-06-19T00:07:18;100519.03;;;17.49;100.00
51928;BME280;37953;52.806;18.270;2023-06-19T00:09:44;100518.31;;;17.44;100.00
51928;BME280;37953;52.806;18.270;2023-06-19T00:12:10;100523.63;;;17.41;100.00
51928;BME280;37953;52.806;18.270;2023-06-19T00:14:37;100523.63;;;17.40;100.00
51928;BME280;37953;52.806;18.270;2023-06-19T00:17:03;100521.97;;;17.37;100.00
51928;BME280;37953;52.806;18.270;2023-06-19T00:19:29;100512.41;;;17.35;100.00
51928;BME280;37953;52.806;18.270;2023-06-19T00:21:54;100521.13;;;17.35;100.00
51928;BME280;37953;52.806;18.270;2023-06-19T00:24:23;100521.91;;;17.40;100.00
51928;BME280;37953;52.806;18.270;2023-06-19T00:26:49;100515.63;;;17.46;100.00
51928;BME280;37953;52.806;18.270;2023-06-19T00:29:15;100514.59;;;17.52;100.00
51928;BME280;37953;52.806;18.270;2023-06-19T00:31:41;100524.84;;;17.62;100.00
51928;BME280;37953;52.806;18.270;2023-06-19T00:34:07;100518.63;;;17.65;100.00
51928;BME280;37953;52.806;18.270;2023-06-19T00:36:33;100523.91;;;17.65;100.00
51928;BME280;37953;52.806;18.270;2023-06-19T00:39:12;100522.91;;;17.69;100.00
51928;BME280;37953;52.806;18.270;2023-06-19T00:41:38;100521.22;;;17.66;100.00
51928;BME280;37953;52.806;18.270;2023-06-19T00:44:05;100521.34;;;17.63;100.00
51928;BME280;37953;52.806;18.270;2023-06-19T00:46:31;100520.53;;;17.60;100.00
51928;BME280;37953;52.806;18.270;2023-06-19T00:48:57;100528.53;;;17.55;100.00
51928;BME280;37953;52.806;18.270;2023-06-19T00:51:23;100525.16;;;17.50;100.00
51928;BME280;37953;52.806;18.270;2023-06-19T00:53:49;100526.25;;;17.41;100.00
51928;BME280;37953;52.806;18.270;2023-06-19T00:56:15;100523.91;;;17.29;100.00
51928;BME280;37953;52.806;18.270;2023-06-19T00:58:44;100520.53;;;17.24;100.00
51928;BME280;37953;52.806;18.270;2023-06-19T01:01:16;100516.34;;;17.17;100.00
51928;BME280;37953;52.806;18.270;2023-06-19T01:03:42;100517.41;;;17.08;100.00
51928;BME280;37953;52.806;18.270;2023-06-19T01:06:13;100514.00;;;17.04;100.00
51928;BME280;37953;52.806;18.270;2023-06-19T01:11:17;100518.56;;;16.96;100.00
51928;BME280;37953;52.806;18.270;2023-06-19T01:13:47;100524.81;;;16.91;100.00
51928;BME280;37953;52.806;18.270;2023-06-19T01:16:14;100517.91;;;16.86;100.00
51928;BME280;37953;52.806;18.270;2023-06-19T01:18:42;100523.25;;;16.82;100.00
51928;BME280;37953;52.806;18.270;2023-06-19T01:21:18;100519.78;;;16.81;100.00
51928;BME280;37953;52.806;18.270;2023-06-19T01:23:44;100516.34;;;16.76;100.00
51928;BME280;37953;52.806;18.270;2023-06-19T01:26:11;100516.38;;;16.75;100.00
51928;BME280;37953;52.806;18.270;2023-06-19T01:28:39;100515.59;;;16.71;100.00
51928;BME280;37953;52.806;18.270;2023-06-19T01:31:24;100512.09;;;16.72;100.00
51928;BME280;37953;52.806;18.270;2023-06-19T01:33:52;100510.44;;;16.66;100.00
51928;BME280;37953;52.806;18.270;2023-06-19T01:36:18;100504.41;;;16.63;100.00
51928;BME280;37953;52.806;18.270;2023-06-19T01:38:45;100519.28;;;16.62;100.00
51928;BME280;37953;52.806;18.270;2023-06-19T01:41:19;100504.41;;;16.61;100.00
51928;BME280;37953;52.806;18.270;2023-06-19T01:43:45;100511.44;;;16.59;100.00
51928;BME280;37953;52.806;18.270;2023-06-19T01:46:11;100512.38;;;16.58;100.00
51928;BME280;37953;52.806;18.270;2023-06-19T01:48:38;100515.00;;;16.57;100.00
51928;BME280;37953;52.806;18.270;2023-06-19T01:51:05;100511.56;;;16.55;100.00
51928;BME280;37953;52.806;18.270;2023-06-19T01:53:45;100519.84;;;16.77;100.00
51928;BME280;37953;52.806;18.270;2023-06-19T01:56:11;100513.19;;;16.60;100.00
51928;BME280;37953;52.806;18.270;2023-06-19T01:58:37;100514.16;;;16.56;100.00
51928;BME280;37953;52.806;18.270;2023-06-19T02:01:03;100512.50;;;16.51;100.00
51928;BME280;37953;52.806;18.270;2023-06-19T02:03:29;100509.91;;;16.51;100.00
51928;BME280;37953;52.806;18.270;2023-06-19T02:05:55;100512.50;;;16.51;100.00
51928;BME280;37953;52.806;18.270;2023-06-19T02:08:21;100521.28;;;16.49;100.00
51928;BME280;37953;52.806;18.270;2023-06-19T02:10:47;100518.78;;;16.45;100.00
51928;BME280;37953;52.806;18.270;2023-06-19T02:13:13;100521.41;;;16.43;100.00
51928;BME280;37953;52.806;18.270;2023-06-19T02:15:39;100511.88;;;16.41;100.00
51928;BME280;37953;52.806;18.270;2023-06-19T02:18:05;100511.03;;;16.39;100.00
51928;BME280;37953;52.806;18.270;2023-06-19T02:20:31;100511.03;;;16.39;100.00
51928;BME280;37953;52.806;18.270;2023-06-19T02:22:57;100508.44;;;16.37;100.00
51928;BME280;37953;52.806;18.270;2023-06-19T02:25:23;100509.28;;;16.38;100.00
51928;BME280;37953;52.806;18.270;2023-06-19T02:27:49;100508.41;;;16.39;100.00
51928;BME280;37953;52.806;18.270;2023-06-19T02:30:15;100508.44;;;16.36;100.00
51928;BME280;37953;52.806;18.270;2023-06-19T02:32:41;100503.25;;;16.34;100.00
51928;BME280;37953;52.806;18.270;2023-06-19T02:35:14;100501.50;;;16.35;100.00
51928;BME280;37953;52.806;18.270;2023-06-19T02:37:41;100503.28;;;16.33;100.00
51928;BME280;37953;52.806;18.270;2023-06-19T02:40:07;100501.53;;;16.32;100.00
51928;BME280;37953;52.806;18.270;2023-06-19T02:42:34;100505.06;;;16.31;100.00
51928;BME280;37953;52.806;18.270;2023-06-19T02:45:00;100510.38;;;16.27;100.00
51928;BME280;37953;52.806;18.270;2023-06-19T02:47:32;100512.97;;;16.29;100.00
51928;BME280;37953;52.806;18.270;2023-06-19T02:49:59;100510.41;;;16.26;100.00
51928;BME280;37953;52.806;18.270;2023-06-19T02:52:25;100516.50;;;16.26;100.00
51928;BME280;37953;52.806;18.270;2023-06-19T02:54:51;100511.34;;;16.23;100.00
51928;BME280;37953;52.806;18.270;2023-06-19T02:57:17;100515.69;;;16.23;100.00
51928;BME280;37953;52.806;18.270;2023-06-19T02:59:43;100515.69;;;16.23;100.00
51928;BME280;37953;52.806;18.270;2023-06-19T03:02:09;100522.72;;;16.22;100.00
51928;BME280;37953;52.806;18.270;2023-06-19T03:04:35;100521.00;;;16.21;100.00
51928;BME280;37953;52.806;18.270;2023-06-19T03:07:07;100519.22;;;16.22;100.00
51928;BME280;37953;52.806;18.270;2023-06-19T03:09:39;100525.31;;;16.24;100.00
51928;BME280;37953;52.806;18.270;2023-06-19T03:12:05;100514.81;;;16.24;100.00
51928;BME280;37953;52.806;18.270;2023-06-19T03:14:31;100510.41;;;16.26;100.00
51928;BME280;37953;52.806;18.270;2023-06-19T03:16:57;100512.97;;;16.29;100.00
51928;BME280;37953;52.806;18.270;2023-06-19T03:19:23;100517.28;;;16.32;100.00
51928;BME280;37953;52.806;18.270;2023-06-19T03:21:49;100512.88;;;16.34;100.00
51928;BME280;37953;52.806;18.270;2023-06-19T03:24:15;100511.06;;;16.36;100.00
51928;BME280;37953;52.806;18.270;2023-06-19T03:26:40;100515.44;;;16.37;100.00
51928;BME280;37953;52.806;18.270;2023-06-19T03:29:06;100527.63;;;16.39;100.00
51928;BME280;37953;52.806;18.270;2023-06-19T03:31:32;100530.16;;;16.42;100.00
51928;BME280;37953;52.806;18.270;2023-06-19T03:33:58;100522.28;;;16.44;100.00
51928;BME280;37953;52.806;18.270;2023-06-19T03:36:24;100521.31;;;16.48;100.00
51928;BME280;37953;52.806;18.270;2023-06-19T03:38:56;100524.72;;;16.53;100.00
51928;BME280;37953;52.806;18.270;2023-06-19T03:41:22;100529.91;;;16.56;100.00
51928;BME280;37953;52.806;18.270;2023-06-19T03:43:48;100528.09;;;16.58;100.00
51928;BME280;37953;52.806;18.270;2023-06-19T03:46:14;100529.75;;;16.64;100.00
51928;BME280;37953;52.806;18.270;2023-06-19T03:48:40;100522.63;;;16.69;100.00
51928;BME280;37953;52.806;18.270;2023-06-19T03:51:05;100526.00;;;16.74;100.00
51928;BME280;37953;52.806;18.270;2023-06-19T03:53:31;100523.31;;;16.77;100.00
51928;BME280;37953;52.806;18.270;2023-06-19T03:56:00;100524.09;;;16.84;100.00
51928;BME280;37953;52.806;18.270;2023-06-19T03:58:26;100526.56;;;16.90;100.00
51928;BME280;37953;52.806;18.270;2023-06-19T04:00:52;100532.53;;;16.97;100.00
51928;BME280;37953;52.806;18.270;2023-06-19T04:03:18;100520.19;;;17.02;100.00
51928;BME280;37953;52.806;18.270;2023-06-19T04:05:44;100522.72;;;17.06;100.00
51928;BME280;37953;52.806;18.270;2023-06-19T04:08:10;100522.59;;;17.11;100.00
51928;BME280;37953;52.806;18.270;2023-06-19T04:10:35;100525.06;;;17.17;100.00
51928;BME280;37953;52.806;18.270;2023-06-19T04:13:01;100519.72;;;17.22;100.00
51928;BME280;37953;52.806;18.270;2023-06-19T04:15:28;100527.47;;;17.26;100.00
51928;BME280;37953;52.806;18.270;2023-06-19T04:17:54;100525.63;;;17.32;100.00
51928;BME280;37953;52.806;18.270;2023-06-19T04:20:20;100529.81;;;17.39;100.00
51928;BME280;37953;52.806;18.270;2023-06-19T04:22:46;100526.22;;;17.43;100.00
51928;BME280;37953;52.806;18.270;2023-06-19T04:25:11;100526.06;;;17.49;100.00
51928;BME280;37953;52.806;18.270;2023-06-19T04:27:37;100524.22;;;17.53;100.00
51928;BME280;37953;52.806;18.270;2023-06-19T04:30:04;100532.00;;;17.57;100.00
51928;BME280;37953;52.806;18.270;2023-06-19T04:32:33;100526.63;;;17.62;100.00
51928;BME280;37953;52.806;18.270;2023-06-19T04:35:00;100522.16;;;17.65;100.00
51928;BME280;37953;52.806;18.270;2023-06-19T04:37:26;100530.78;;;17.69;100.00
51928;BME280;37953;52.806;18.270;2023-06-19T04:39:52;100532.44;;;17.73;100.00
51928;BME280;37953;52.806;18.270;2023-06-19T04:42:18;100525.31;;;17.78;100.00
51928;BME280;37953;52.806;18.270;2023-06-19T04:44:47;100531.34;;;17.82;100.00
51928;BME280;37953;52.806;18.270;2023-06-19T04:47:14;100540.06;;;17.85;100.00
51928;BME280;37953;52.806;18.270;2023-06-19T04:49:41;100532.97;;;17.89;100.00
51928;BME280;37953;52.806;18.270;2023-06-19T04:52:07;100536.41;;;17.91;100.00
51928;BME280;37953;52.806;18.270;2023-06-19T04:54:33;100538.06;;;17.95;100.00
51928;BME280;37953;52.806;18.270;2023-06-19T04:56:59;100540.59;;;17.98;100.00
51928;BME280;37953;52.806;18.270;2023-06-19T04:59:26;100540.56;;;18.00;100.00
51928;BME280;37953;52.806;18.270;2023-06-19T05:01:52;100550.09;;;18.04;100.00
51928;BME280;37953;52.806;18.270;2023-06-19T05:04:20;100555.25;;;18.07;100.00
51928;BME280;37953;52.806;18.270;2023-06-19T05:06:46;100550.81;;;18.09;100.00
51928;BME280;37953;52.806;18.270;2023-06-19T05:09:12;100551.56;;;18.14;100.00
51928;BME280;37953;52.806;18.270;2023-06-19T05:11:41;100550.66;;;18.15;100.00
51928;BME280;37953;52.806;18.270;2023-06-19T05:14:07;100554.03;;;18.20;100.00
51928;BME280;37953;52.806;18.270;2023-06-19T05:16:36;100551.31;;;18.23;100.00
51928;BME280;37953;52.806;18.270;2023-06-19T05:19:04;100555.56;;;18.27;100.00
51928;BME280;37953;52.806;18.270;2023-06-19T05:21:31;100559.84;;;18.31;100.00
51928;BME280;37953;52.806;18.270;2023-06-19T05:23:57;100555.41;;;18.34;100.00
51928;BME280;37953;52.806;18.270;2023-06-19T05:26:23;100556.19;;;18.37;100.00
51928;BME280;37953;52.806;18.270;2023-06-19T05:28:49;100557.88;;;18.40;100.00
51928;BME280;37953;52.806;18.270;2023-06-19T05:31:15;100570.88;;;18.44;100.00
51928;BME280;37953;52.806;18.270;2023-06-19T05:33:41;100565.59;;;18.46;100.00
51928;BME280;37953;52.806;18.270;2023-06-19T05:36:07;100564.63;;;18.48;100.00
51928;BME280;37953;52.806;18.270;2023-06-19T05:38:33;100562.78;;;18.52;100.00
51928;BME280;37953;52.806;18.270;2023-06-19T05:40:59;100560.09;;;18.54;100.00
51928;BME280;37953;52.806;18.270;2023-06-19T05:43:26;100565.19;;;18.60;100.00
51928;BME280;37953;52.806;18.270;2023-06-19T05:46:06;100572.06;;;18.64;100.00
51928;BME280;37953;52.806;18.270;2023-06-19T05:48:32;100566.78;;;18.65;100.00
51928;BME280;37953;52.806;18.270;2023-06-19T05:50:58;100569.31;;;18.68;100.00
51928;BME280;37953;52.806;18.270;2023-06-19T05:53:25;100569.22;;;18.71;100.00
51928;BME280;37953;52.806;18.270;2023-06-19T05:55:50;100576.13;;;18.76;100.00
51928;BME280;37953;52.806;18.270;2023-06-19T05:58:16;100566.44;;;18.78;100.00
51928;BME280;37953;52.806;18.270;2023-06-19T06:00:45;100570.72;;;18.82;100.00
51928;BME280;37953;52.806;18.270;2023-06-19T06:03:12;100567.09;;;18.86;100.00
51928;BME280;37953;52.806;18.270;2023-06-19T06:05:39;100569.63;;;18.89;100.00
51928;BME280;37953;52.806;18.270;2023-06-19T06:08:05;100566.88;;;18.92;100.00
51928;BME280;37953;52.806;18.270;2023-06-19T06:10:30;100566.81;;;18.95;100.00
51928;BME280;37953;52.806;18.270;2023-06-19T06:12:56;100575.41;;;19.00;100.00
51928;BME280;37953;52.806;18.270;2023-06-19T06:15:22;100563.06;;;19.02;100.00
51928;BME280;37953;52.806;18.270;2023-06-19T06:17:48;100561.22;;;19.06;100.00
51928;BME280;37953;52.806;18.270;2023-06-19T06:20:14;100573.38;;;19.10;100.00
51928;BME280;37953;52.806;18.270;2023-06-19T06:22:41;100570.63;;;19.13;100.00
51928;BME280;37953;52.806;18.270;2023-06-19T06:25:07;100572.34;;;19.16;100.00
51928;BME280;37953;52.806;18.270;2023-06-19T06:27:34;100574.84;;;19.19;100.00
51928;BME280;37953;52.806;18.270;2023-06-19T06:30:00;100572.19;;;19.20;100.00
51928;BME280;37953;52.806;18.270;2023-06-19T06:32:26;100572.94;;;19.24;100.00
51928;BME280;37953;52.806;18.270;2023-06-19T06:34:54;100568.47;;;19.26;100.00
51928;BME280;37953;52.806;18.270;2023-06-19T06:37:20;100578.13;;;19.27;100.00
51928;BME280;37953;52.806;18.270;2023-06-19T06:39:49;100581.53;;;19.30;100.00
51928;BME280;37953;52.806;18.270;2023-06-19T06:42:16;100579.69;;;19.32;100.00
51928;BME280;37953;52.806;18.270;2023-06-19T06:44:42;100584.00;;;19.35;100.00
51928;BME280;37953;52.806;18.270;2023-06-19T06:47:08;100589.16;;;19.38;100.00
51928;BME280;37953;52.806;18.270;2023-06-19T06:49:34;100592.63;;;19.40;100.00
51928;BME280;37953;52.806;18.270;2023-06-19T06:52:05;100596.03;;;19.44;100.00
51928;BME280;37953;52.806;18.270;2023-06-19T06:54:31;100602.09;;;19.46;100.00
51928;BME280;37953;52.806;18.270;2023-06-19T06:56:58;100602.06;;;19.47;100.00
51928;BME280;37953;52.806;18.270;2023-06-19T06:59:26;100605.50;;;19.49;100.00
51928;BME280;37953;52.806;18.270;2023-06-19T07:01:54;100605.44;;;19.51;100.00
51928;BME280;37953;52.806;18.270;2023-06-19T07:04:20;100608.00;;;19.54;100.00
51928;BME280;37953;52.806;18.270;2023-06-19T07:06:47;100608.81;;;19.56;100.00
51928;BME280;37953;52.806;18.270;2023-06-19T07:09:14;100618.34;;;19.60;100.00
51928;BME280;37953;52.806;18.270;2023-06-19T07:11:40;100620.06;;;19.61;100.00
51928;BME280;37953;52.806;18.270;2023-06-19T07:14:06;100613.81;;;19.64;100.00
51928;BME280;37953;52.806;18.270;2023-06-19T07:16:33;100609.44;;;19.64;100.00
51928;BME280;37953;52.806;18.270;2023-06-19T07:18:58;100610.16;;;19.68;100.00
51928;BME280;37953;52.806;18.270;2023-06-19T07:21:27;100614.53;;;19.69;100.00
51928;BME280;37953;52.806;18.270;2023-06-19T07:23:59;100617.09;;;19.72;100.00
51928;BME280;37953;52.806;18.270;2023-06-19T07:26:25;100617.91;;;19.74;100.00
51928;BME280;37953;52.806;18.270;2023-06-19T07:28:51;100620.47;;;19.77;100.00
51928;BME280;37953;52.806;18.270;2023-06-19T07:31:17;100622.13;;;19.80;100.00
51928;BME280;37953;52.806;18.270;2023-06-19T07:33:43;100618.56;;;19.81;100.00
51928;BME280;37953;52.806;18.270;2023-06-19T07:36:09;100622.81;;;19.85;100.00
51928;BME280;37953;52.806;18.270;2023-06-19T07:38:49;100623.63;;;19.87;100.00
51928;BME280;37953;52.806;18.270;2023-06-19T07:41:15;100618.31;;;19.88;100.00
51928;BME280;37953;52.806;18.270;2023-06-19T07:43:47;100627.91;;;19.91;100.00
51928;BME280;37953;52.806;18.270;2023-06-19T07:46:13;100623.38;;;19.95;100.00
51928;BME280;37953;52.806;18.270;2023-06-19T07:48:40;100619.81;;;19.96;100.00
51928;BME280;37953;52.806;18.270;2023-06-19T07:51:06;100623.28;;;19.98;100.00
51928;BME280;37953;52.806;18.270;2023-06-19T07:53:32;100621.34;;;20.03;100.00
51928;BME280;37953;52.806;18.270;2023-06-19T07:55:58;100619.47;;;20.06;100.00
51928;BME280;37953;52.806;18.270;2023-06-19T07:58:24;100629.81;;;20.12;100.00
51928;BME280;37953;52.806;18.270;2023-06-19T08:00:50;100626.16;;;20.17;100.00
51928;BME280;37953;52.806;18.270;2023-06-19T08:03:16;100619.91;;;20.19;100.00
51928;BME280;37953;52.806;18.270;2023-06-19T08:05:42;100614.63;;;20.19;100.00
51928;BME280;37953;52.806;18.270;2023-06-19T08:08:08;100608.28;;;20.25;100.00
51928;BME280;37953;52.806;18.270;2023-06-19T08:10:34;100620.44;;;20.29;100.00
51928;BME280;37953;52.806;18.270;2023-06-19T08:13:00;100611.63;;;20.30;100.00
51928;BME280;37953;52.806;18.270;2023-06-19T08:15:26;100606.19;;;20.34;100.00
51928;BME280;37953;52.806;18.270;2023-06-19T08:17:52;100613.13;;;20.37;100.00
51928;BME280;37953;52.806;18.270;2023-06-19T08:20:18;100620.03;;;20.41;100.00
51928;BME280;37953;52.806;18.270;2023-06-19T08:22:45;100613.81;;;20.42;100.00
51928;BME280;37953;52.806;18.270;2023-06-19T08:25:11;100618.03;;;20.48;100.00
51928;BME280;37953;52.806;18.270;2023-06-19T08:27:37;100610.91;;;20.50;100.00
51928;BME280;37953;52.806;18.270;2023-06-19T08:30:03;100612.56;;;20.52;100.00
51928;BME280;37953;52.806;18.270;2023-06-19T08:32:29;100603.66;;;20.55;100.00
51928;BME280;37953;52.806;18.270;2023-06-19T08:34:56;100612.38;;;20.59;100.00
51928;BME280;37953;52.806;18.270;2023-06-19T08:37:21;100611.41;;;20.61;100.00
51928;BME280;37953;52.806;18.270;2023-06-19T08:39:48;100614.78;;;20.65;100.00
51928;BME280;37953;52.806;18.270;2023-06-19T08:42:13;100611.94;;;20.71;100.00
51928;BME280;37953;52.806;18.270;2023-06-19T08:44:39;100614.41;;;20.76;100.00
51928;BME280;37953;52.806;18.270;2023-06-19T08:47:05;100619.44;;;20.82;100.00
51928;BME280;37953;52.806;18.270;2023-06-19T08:49:35;100617.38;;;20.90;100.00
51928;BME280;37953;52.806;18.270;2023-06-19T08:52:02;100615.41;;;20.95;100.00
51928;BME280;37953;52.806;18.270;2023-06-19T08:54:28;100609.09;;;20.99;100.00
51928;BME280;37953;52.806;18.270;2023-06-19T08:56:54;100607.28;;;21.01;100.00
51928;BME280;37953;52.806;18.270;2023-06-19T08:59:20;100608.13;;;21.02;100.00
51928;BME280;37953;52.806;18.270;2023-06-19T09:01:52;100610.66;;;21.05;100.00
51928;BME280;37953;52.806;18.270;2023-06-19T09:04:20;100601.00;;;21.04;100.00
51928;BME280;37953;52.806;18.270;2023-06-19T09:06:58;100603.59;;;21.05;100.00
51928;BME280;37953;52.806;18.270;2023-06-19T09:09:25;100603.59;;;21.05;100.00
51928;BME280;37953;52.806;18.270;2023-06-19T09:12:17;100603.50;;;21.08;100.00
51928;BME280;37953;52.806;18.270;2023-06-19T09:14:45;100608.78;;;21.08;100.00
51928;BME280;37953;52.806;18.270;2023-06-19T09:17:13;100605.09;;;21.12;100.00
51928;BME280;37953;52.806;18.270;2023-06-19T09:19:47;100606.56;;;21.20;100.00
51928;BME280;37953;52.806;18.270;2023-06-19T09:22:13;100603.50;;;21.30;100.00
51928;BME280;37953;52.806;18.270;2023-06-19T09:24:41;100596.91;;;21.42;100.00
51928;BME280;37953;52.806;18.270;2023-06-19T09:27:18;100599.16;;;21.51;100.00
51928;BME280;37953;52.806;18.270;2023-06-19T09:29:51;100590.19;;;21.55;100.00
51928;BME280;37953;52.806;18.270;2023-06-19T09:32:20;100593.50;;;21.61;100.00
51928;BME280;37953;52.806;18.270;2023-06-19T09:34:47;100591.41;;;21.69;96.80
51928;BME280;37953;52.806;18.270;2023-06-19T09:37:23;100591.19;;;21.73;96.11
51928;BME280;37953;52.806;18.270;2023-06-19T09:39:58;100593.69;;;21.78;98.41
51928;BME280;37953;52.806;18.270;2023-06-19T09:42:32;100577.66;;;21.81;99.72
51928;BME280;37953;52.806;18.270;2023-06-19T09:45:12;100586.88;;;21.93;99.84
51928;BME280;37953;52.806;18.270;2023-06-19T09:47:45;100582.31;;;21.96;92.26
51928;BME280;37953;52.806;18.270;2023-06-19T09:50:13;100584.88;;;21.98;91.63
51928;BME280;37953;52.806;18.270;2023-06-19T09:52:45;100592.81;;;21.98;91.21
51928;BME280;37953;52.806;18.270;2023-06-19T09:55:13;100592.09;;;21.94;91.37
51928;BME280;37953;52.806;18.270;2023-06-19T09:57:40;100590.38;;;21.93;91.91
51928;BME280;37953;52.806;18.270;2023-06-19T10:00:20;100585.09;;;21.93;93.38
51928;BME280;37953;52.806;18.270;2023-06-19T10:02:51;100582.44;;;21.93;90.39
51928;BME280;37953;52.806;18.270;2023-06-19T10:05:31;100578.75;;;21.98;90.12
51928;BME280;37953;52.806;18.270;2023-06-19T10:07:57;100583.94;;;21.99;90.74
51928;BME280;37953;52.806;18.270;2023-06-19T10:10:32;100581.31;;;21.99;94.08
51928;BME280;37953;52.806;18.270;2023-06-19T10:13:15;100580.41;;;22.00;92.72
51928;BME280;37953;52.806;18.270;2023-06-19T10:15:43;100574.16;;;22.01;93.20
51928;BME280;37953;52.806;18.270;2023-06-19T10:18:16;100572.84;;;22.11;98.30
51928;BME280;37953;52.806;18.270;2023-06-19T10:20:43;100574.44;;;22.15;95.63
51928;BME280;37953;52.806;18.270;2023-06-19T10:23:15;100571.56;;;22.20;95.89
51928;BME280;37953;52.806;18.270;2023-06-19T10:25:46;100573.00;;;22.29;94.73
51928;BME280;37953;52.806;18.270;2023-06-19T10:28:32;100566.50;;;22.36;95.12
51928;BME280;37953;52.806;18.270;2023-06-19T10:31:03;100565.50;;;22.39;92.42
51928;BME280;37953;52.806;18.270;2023-06-19T10:33:31;100568.03;;;22.42;92.33
51928;BME280;37953;52.806;18.270;2023-06-19T10:35:59;100573.81;;;22.50;93.22
51928;BME280;37953;52.806;18.270;2023-06-19T10:38:28;100572.63;;;22.57;91.22
51928;BME280;37953;52.806;18.270;2023-06-19T10:41:00;100569.75;;;22.62;95.87
51928;BME280;37953;52.806;18.270;2023-06-19T10:43:26;100572.97;;;22.68;93.78
51928;BME280;37953;52.806;18.270;2023-06-19T10:46:06;100580.81;;;22.71;88.34
51928;BME280;37953;52.806;18.270;2023-06-19T10:48:32;100577.72;;;22.81;89.70
51928;BME280;37953;52.806;18.270;2023-06-19T10:50:59;100574.78;;;22.87;90.40
51928;BME280;37953;52.806;18.270;2023-06-19T10:53:29;100575.56;;;22.89;89.91
51928;BME280;37953;52.806;18.270;2023-06-19T10:56:00;100577.22;;;22.91;90.55
51928;BME280;37953;52.806;18.270;2023-06-19T10:58:27;100577.22;;;22.91;89.43
51928;BME280;37953;52.806;18.270;2023-06-19T11:00:56;100578.22;;;22.89;88.07
51928;BME280;37953;52.806;18.270;2023-06-19T11:03:22;100574.78;;;22.87;86.94
51928;BME280;37953;52.806;18.270;2023-06-19T11:05:49;100570.34;;;22.87;86.21
51928;BME280;37953;52.806;18.270;2023-06-19T11:08:21;100565.78;;;22.91;87.75
51928;BME280;37953;52.806;18.270;2023-06-19T11:10:49;100567.56;;;22.90;86.67
51928;BME280;37953;52.806;18.270;2023-06-19T11:13:17;100566.78;;;22.88;82.36
51928;BME280;37953;52.806;18.270;2023-06-19T11:15:50;100571.13;;;22.89;85.16
51928;BME280;37953;52.806;18.270;2023-06-19T11:18:18;100567.63;;;22.89;84.62
51928;BME280;37953;52.806;18.270;2023-06-19T11:20:48;100560.59;;;22.88;82.92
51928;BME280;37953;52.806;18.270;2023-06-19T11:23:17;100561.53;;;22.87;83.36
51928;BME280;37953;52.806;18.270;2023-06-19T11:25:50;100566.97;;;22.84;83.91
51928;BME280;37953;52.806;18.270;2023-06-19T11:28:17;100569.72;;;22.82;84.17
51928;BME280;37953;52.806;18.270;2023-06-19T11:31:01;100569.78;;;22.81;83.81
51928;BME280;37953;52.806;18.270;2023-06-19T11:33:28;100562.84;;;22.78;83.70
51928;BME280;37953;52.806;18.270;2023-06-19T11:35:59;100567.34;;;22.76;86.12
51928;BME280;37953;52.806;18.270;2023-06-19T11:38:26;100562.09;;;22.74;86.71
51928;BME280;37953;52.806;18.270;2023-06-19T11:40:54;100563.91;;;22.74;86.88
51928;BME280;37953;52.806;18.270;2023-06-19T11:43:29;100562.09;;;22.74;87.99
51928;BME280;37953;52.806;18.270;2023-06-19T11:46:07;100558.53;;;22.75;88.47
51928;BME280;37953;52.806;18.270;2023-06-19T11:48:36;100544.28;;;22.78;88.53
51928;BME280;37953;52.806;18.270;2023-06-19T11:51:03;100545.94;;;22.81;87.54
51928;BME280;37953;52.806;18.270;2023-06-19T11:53:28;100554.59;;;22.84;86.68
51928;BME280;37953;52.806;18.270;2023-06-19T11:55:55;100551.00;;;22.85;84.08
51928;BME280;37953;52.806;18.270;2023-06-19T11:58:21;100547.44;;;22.86;85.25
51928;BME280;37953;52.806;18.270;2023-06-19T12:00:48;100547.34;;;22.88;85.58
51928;BME280;37953;52.806;18.270;2023-06-19T12:03:21;100548.88;;;22.93;87.92
51928;BME280;37953;52.806;18.270;2023-06-19T12:05:47;100539.06;;;22.95;85.50
51928;BME280;37953;52.806;18.270;2023-06-19T12:08:13;100537.13;;;22.99;86.46
51928;BME280;37953;52.806;18.270;2023-06-19T12:10:40;100535.06;;;23.06;90.72
51928;BME280;37953;52.806;18.270;2023-06-19T12:13:05;100541.72;;;23.14;90.97
51928;BME280;37953;52.806;18.270;2023-06-19T12:15:31;100540.34;;;23.25;88.52
51928;BME280;37953;52.806;18.270;2023-06-19T12:17:57;100538.00;;;23.36;88.64
51928;BME280;37953;52.806;18.270;2023-06-19T12:20:24;100538.72;;;23.40;83.82
51928;BME280;37953;52.806;18.270;2023-06-19T12:22:50;100536.13;;;23.38;81.42
51928;BME280;37953;52.806;18.270;2023-06-19T12:25:17;100540.41;;;23.41;81.61
51928;BME280;37953;52.806;18.270;2023-06-19T12:27:42;100540.41;;;23.41;80.06
51928;BME280;37953;52.806;18.270;2023-06-19T12:30:09;100537.88;;;23.39;79.10
51928;BME280;37953;52.806;18.270;2023-06-19T12:32:35;100541.22;;;23.43;81.19
51928;BME280;37953;52.806;18.270;2023-06-19T12:35:01;100534.91;;;23.45;79.23
51928;BME280;37953;52.806;18.270;2023-06-19T12:37:33;100528.66;;;23.46;78.85